Time;durP1;ratioP1;P1;durP2;ratioP2;P2;SDS_P1;SDS_P2;PMS_P1;PMS_P2;Temp;Humidity;BMP_temperature;BMP_pressure;BME280_temperature;BME280_humidity;BME280_pressure;Samples;Min_cycle;Max_cycle;Signal;HPM_P1;HPM_P2
2022/06/22 00:02:06;;;;;;;3.55;3.20;;;;;;;;;;4991173;28;20395;-61
2022/06/22 00:04:35;;;;;;;3.85;3.35;;;;;;;;;;4996153;28;20029;-61
2022/06/22 00:07:07;;;;;;;3.80;3.50;;;;;;;;;;4995855;28;20410;-61
2022/06/22 00:09:34;;;;;;;4.07;3.60;;;;;;;;;;4996142;28;20034;-61
2022/06/22 00:12:00;;;;;;;4.88;4.43;;;;;;;;;;4993666;28;20037;-61
2022/06/22 00:14:32;;;;;;;5.13;3.65;;;;;;;;;;4979131;28;20025;-61
2022/06/22 00:16:58;;;;;;;4.85;3.88;;;;;;;;;;4991783;28;20033;-60
2022/06/22 00:19:35;;;;;;;4.43;3.67;;;;;;;;;;4991933;28;20037;-61
2022/06/22 00:22:01;;;;;;;3.78;3.50;;;;;;;;;;4993266;28;20403;-61
2022/06/22 00:24:26;;;;;;;5.80;3.50;;;;;;;;;;4993419;28;20018;-61
2022/06/22 00:26:56;;;;;;;3.75;3.45;;;;;;;;;;4992703;28;20447;-60
2022/06/22 00:29:23;;;;;;;3.92;3.53;;;;;;;;;;4991631;28;20500;-60
2022/06/22 00:31:48;;;;;;;4.80;3.45;;;;;;;;;;4994549;28;20495;-60
2022/06/22 00:34:19;;;;;;;3.55;3.30;;;;;;;;;;4995741;28;20022;-61
2022/06/22 00:36:44;;;;;;;4.10;3.35;;;;;;;;;;4992031;28;20022;-60
2022/06/22 00:39:36;;;;;;;5.70;3.83;;;;;;;;;;4989843;28;20041;-60
2022/06/22 00:42:21;;;;;;;3.78;3.47;;;;;;;;;;4969921;28;20455;-61
2022/06/22 00:45:15;;;;;;;5.32;3.85;;;;;;;;;;4989883;28;20022;-61
2022/06/22 00:47:46;;;;;;;5.28;3.95;;;;;;;;;;4974656;28;20026;-60
2022/06/22 00:50:11;;;;;;;4.88;3.85;;;;;;;;;;4992405;28;20038;-60
2022/06/22 00:52:48;;;;;;;4.07;3.67;;;;;;;;;;4991923;28;20084;-60
2022/06/22 00:55:25;;;;;;;5.63;4.13;;;;;;;;;;4990097;28;20638;-60
2022/06/22 00:57:59;;;;;;;3.95;3.65;;;;;;;;;;4990933;28;20033;-61
2022/06/22 01:00:28;;;;;;;4.57;3.80;;;;;;;;;;4993615;28;20033;-60
2022/06/22 01:02:55;;;;;;;5.55;3.40;;;;;;;;;;4975896;28;20022;-60
2022/06/22 01:05:20;;;;;;;4.85;3.45;;;;;;;;;;4988859;28;20511;-60
2022/06/22 01:07:49;;;;;;;3.50;3.20;;;;;;;;;;4989582;28;20070;-60
2022/06/22 01:10:20;;;;;;;3.63;3.33;;;;;;;;;;4992827;28;20145;-60
2022/06/22 01:12:45;;;;;;;4.88;4.10;;;;;;;;;;4990582;28;20539;-60
2022/06/22 01:15:12;;;;;;;4.15;3.25;;;;;;;;;;4989764;28;20034;-61
2022/06/22 01:17:54;;;;;;;3.65;3.42;;;;;;;;;;4990996;28;20365;-59
2022/06/22 01:20:42;;;;;;;3.88;3.40;;;;;;;;;;4994623;28;20029;-59
2022/06/22 01:23:33;;;;;;;4.30;3.40;;;;;;;;;;4977757;28;20053;-62
2022/06/22 01:26:04;;;;;;;3.88;3.63;;;;;;;;;;4989975;28;20022;-62
2022/06/22 01:28:29;;;;;;;3.72;3.42;;;;;;;;;;4991829;28;20065;-61
2022/06/22 01:30:56;;;;;;;4.20;3.70;;;;;;;;;;4993610;28;20145;-62
2022/06/22 01:33:24;;;;;;;3.53;3.22;;;;;;;;;;4990196;28;20030;-61
2022/06/22 01:35:55;;;;;;;4.20;3.80;;;;;;;;;;4993935;28;20085;-62
2022/06/22 01:38:24;;;;;;;4.07;3.40;;;;;;;;;;4991043;28;20026;-60
2022/06/22 01:41:02;;;;;;;3.28;2.97;;;;;;;;;;4991011;28;20058;-59
2022/06/22 01:43:50;;;;;;;3.35;3.15;;;;;;;;;;4990563;28;20471;-60
2022/06/22 01:46:15;;;;;;;5.88;3.10;;;;;;;;;;4978834;28;20120;-60
2022/06/22 01:48:43;;;;;;;3.05;2.83;;;;;;;;;;4991163;28;20036;-60
2022/06/22 01:51:21;;;;;;;4.10;3.80;;;;;;;;;;4990992;28;20025;-60
2022/06/22 01:53:49;;;;;;;4.18;3.63;;;;;;;;;;4989572;28;20041;-59
2022/06/22 01:56:34;;;;;;;4.05;3.75;;;;;;;;;;4994487;28;20026;-60
2022/06/22 01:59:06;;;;;;;4.55;3.45;;;;;;;;;;4992353;28;20026;-59
2022/06/22 02:01:38;;;;;;;4.22;3.70;;;;;;;;;;4986586;28;20480;-62
2022/06/22 02:04:06;;;;;;;4.35;3.97;;;;;;;;;;4985519;28;20033;-62
2022/06/22 02:09:27;;;;;;;3.97;3.60;;;;;;;;;;4987042;28;20049;-60
2022/06/22 02:12:18;;;;;;;4.20;3.50;;;;;;;;;;4989693;28;20500;-64
2022/06/22 02:14:43;;;;;;;3.65;3.35;;;;;;;;;;4988059;28;20141;-59
2022/06/22 02:17:10;;;;;;;4.20;3.70;;;;;;;;;;4987923;28;20408;-62
2022/06/22 02:19:36;;;;;;;3.70;3.40;;;;;;;;;;4988847;28;20034;-62
2022/06/22 02:22:02;;;;;;;4.65;3.40;;;;;;;;;;4988068;28;20030;-62
2022/06/22 02:24:33;;;;;;;4.88;3.95;;;;;;;;;;4988608;28;20461;-62
2022/06/22 02:27:00;;;;;;;7.90;3.60;;;;;;;;;;4987736;28;20030;-62
2022/06/22 02:29:29;;;;;;;3.60;3.30;;;;;;;;;;4984525;28;20033;-63
2022/06/22 02:31:57;;;;;;;4.07;3.53;;;;;;;;;;4987747;28;20022;-64
2022/06/22 02:34:23;;;;;;;3.70;3.40;;;;;;;;;;4991676;28;20049;-64
2022/06/22 02:36:50;;;;;;;3.85;3.47;;;;;;;;;;4971534;28;20026;-63
2022/06/22 02:39:17;;;;;;;3.90;3.17;;;;;;;;;;4988781;28;20035;-63
2022/06/22 02:44:30;;;;;;;4.10;3.17;;;;;;;;;;4988211;28;20025;-63
2022/06/22 02:47:19;;;;;;;4.78;3.30;;;;;;;;;;4986603;28;20727;-64
2022/06/22 02:50:00;;;;;;;3.45;3.15;;;;;;;;;;4886881;29;20048;-64
2022/06/22 02:52:29;;;;;;;3.55;3.17;;;;;;;;;;4894009;29;20492;-61
2022/06/22 02:54:55;;;;;;;7.13;3.45;;;;;;;;;;4892744;29;20037;-64
2022/06/22 02:57:29;;;;;;;2.70;2.60;;;;;;;;;;4888308;29;20163;-63
2022/06/22 02:59:55;;;;;;;6.55;3.25;;;;;;;;;;4886599;29;20355;-63
2022/06/22 03:02:21;;;;;;;4.18;3.53;;;;;;;;;;4891773;29;20470;-63
2022/06/22 03:04:47;;;;;;;3.72;3.45;;;;;;;;;;4891462;29;20474;-63
2022/06/22 03:07:13;;;;;;;5.97;3.50;;;;;;;;;;4886098;29;20099;-63
2022/06/22 03:09:39;;;;;;;3.47;3.20;;;;;;;;;;4887093;29;20471;-63
2022/06/22 03:12:05;;;;;;;3.92;2.80;;;;;;;;;;4892206;29;20498;-63
2022/06/22 03:14:32;;;;;;;4.30;2.70;;;;;;;;;;4891571;29;20178;-63
2022/06/22 03:16:59;;;;;;;3.75;3.10;;;;;;;;;;4888243;29;20040;-60
2022/06/22 03:19:32;;;;;;;3.22;2.88;;;;;;;;;;4892394;29;20502;-60
2022/06/22 03:21:58;;;;;;;4.07;2.58;;;;;;;;;;4891973;29;20072;-61
2022/06/22 03:24:29;;;;;;;3.03;2.78;;;;;;;;;;4891282;29;20120;-63
2022/06/22 03:26:59;;;;;;;3.25;2.97;;;;;;;;;;4920760;28;20045;-63
2022/06/22 03:29:24;;;;;;;3.92;2.67;;;;;;;;;;4951695;28;20074;-63
2022/06/22 03:31:53;;;;;;;3.85;2.83;;;;;;;;;;4952481;28;20174;-62
2022/06/22 03:34:22;;;;;;;7.50;3.40;;;;;;;;;;4950351;28;20031;-62
2022/06/22 03:36:53;;;;;;;4.53;3.35;;;;;;;;;;4948094;28;20035;-62
2022/06/22 03:39:20;;;;;;;4.30;3.38;;;;;;;;;;4951475;28;20455;-62
2022/06/22 03:42:04;;;;;;;3.78;3.47;;;;;;;;;;4947990;28;20461;-62
2022/06/22 03:44:32;;;;;;;3.55;3.17;;;;;;;;;;4956297;28;20491;-63
2022/06/22 03:47:06;;;;;;;5.70;3.42;;;;;;;;;;4946426;28;20030;-62
2022/06/22 03:49:36;;;;;;;4.78;3.80;;;;;;;;;;4949109;28;20130;-62
2022/06/22 03:52:29;;;;;;;3.85;3.28;;;;;;;;;;4960143;28;20030;-61
2022/06/22 03:55:09;;;;;;;3.67;2.83;;;;;;;;;;4940930;28;20566;-60
2022/06/22 03:57:37;;;;;;;2.95;2.75;;;;;;;;;;4948048;28;20037;-60
2022/06/22 04:00:03;;;;;;;4.07;3.58;;;;;;;;;;4948173;28;20034;-62
2022/06/22 04:02:28;;;;;;;4.40;3.55;;;;;;;;;;4945408;28;20050;-62
2022/06/22 04:04:54;;;;;;;2.80;2.60;;;;;;;;;;4945337;28;20477;-62
2022/06/22 04:07:21;;;;;;;3.30;3.10;;;;;;;;;;4956711;28;20145;-62
2022/06/22 04:09:53;;;;;;;3.17;2.97;;;;;;;;;;4986878;28;20043;-62
2022/06/22 04:12:27;;;;;;;3.47;3.17;;;;;;;;;;4966995;28;20033;-61
2022/06/22 04:14:57;;;;;;;3.60;3.30;;;;;;;;;;4984854;28;20037;-61
2022/06/22 04:17:23;;;;;;;3.70;3.47;;;;;;;;;;4987871;28;20261;-62
2022/06/22 04:19:54;;;;;;;5.43;3.60;;;;;;;;;;4987095;28;20077;-61
2022/06/22 04:22:21;;;;;;;3.20;2.92;;;;;;;;;;4985799;28;20045;-62
2022/06/22 04:24:47;;;;;;;3.63;3.33;;;;;;;;;;4987026;28;20247;-61
2022/06/22 04:27:27;;;;;;;2.75;2.53;;;;;;;;;;4988519;28;20415;-62
2022/06/22 04:29:57;;;;;;;5.57;3.17;;;;;;;;;;4987125;28;20401;-63
2022/06/22 04:32:24;;;;;;;3.25;2.92;;;;;;;;;;4987990;28;20054;-62
2022/06/22 04:34:59;;;;;;;3.25;2.90;;;;;;;;;;4987853;28;20036;-64
2022/06/22 04:37:27;;;;;;;4.22;3.60;;;;;;;;;;4989664;28;20056;-61
2022/06/22 04:40:00;;;;;;;3.20;3.00;;;;;;;;;;4984901;28;20026;-62
2022/06/22 04:42:25;;;;;;;4.53;3.20;;;;;;;;;;4984022;28;20476;-62
2022/06/22 04:44:51;;;;;;;4.93;3.90;;;;;;;;;;4991798;28;20138;-62
2022/06/22 04:47:24;;;;;;;6.70;3.97;;;;;;;;;;4993661;28;20026;-69
2022/06/22 04:49:57;;;;;;;3.97;3.58;;;;;;;;;;4988957;28;20046;-69
2022/06/22 04:52:42;;;;;;;3.85;3.55;;;;;;;;;;4988290;28;20033;-69
2022/06/22 04:55:11;;;;;;;3.83;3.50;;;;;;;;;;4990059;28;20029;-69
2022/06/22 04:57:38;;;;;;;4.22;3.47;;;;;;;;;;4989286;28;20452;-70
2022/06/22 05:00:26;;;;;;;3.88;3.58;;;;;;;;;;4988778;28;20037;-69
2022/06/22 05:02:56;;;;;;;4.38;3.85;;;;;;;;;;4978863;28;20484;-69
2022/06/22 05:05:28;;;;;;;4.28;3.97;;;;;;;;;;4990683;28;20468;-68
2022/06/22 05:07:59;;;;;;;3.70;3.40;;;;;;;;;;4990178;28;20077;-68
2022/06/22 05:10:28;;;;;;;3.92;3.63;;;;;;;;;;4987611;28;20551;-69
2022/06/22 05:12:58;;;;;;;4.72;3.50;;;;;;;;;;4990150;28;20448;-64
2022/06/22 05:15:28;;;;;;;3.55;3.17;;;;;;;;;;4990498;28;20052;-63
2022/06/22 05:17:54;;;;;;;3.20;3.00;;;;;;;;;;4988591;28;20106;-63
2022/06/22 05:20:31;;;;;;;3.40;3.10;;;;;;;;;;4988777;28;20337;-63
2022/06/22 05:22:58;;;;;;;3.33;3.00;;;;;;;;;;4991646;28;20026;-63
2022/06/22 05:25:23;;;;;;;4.05;3.50;;;;;;;;;;4989421;28;20030;-63
2022/06/22 05:27:55;;;;;;;4.43;3.55;;;;;;;;;;4987548;28;20029;-62
2022/06/22 05:30:20;;;;;;;3.70;3.35;;;;;;;;;;4987397;28;20042;-63
2022/06/22 05:32:50;;;;;;;6.40;3.47;;;;;;;;;;4990317;28;20014;-61
2022/06/22 05:35:19;;;;;;;3.60;3.30;;;;;;;;;;4988471;28;20484;-63
2022/06/22 05:37:46;;;;;;;4.05;3.17;;;;;;;;;;4987337;28;20026;-66
2022/06/22 05:40:13;;;;;;;3.72;3.53;;;;;;;;;;4988546;28;20798;-65
2022/06/22 05:42:38;;;;;;;4.50;4.10;;;;;;;;;;4989770;28;20030;-64
2022/06/22 05:45:11;;;;;;;5.57;3.42;;;;;;;;;;4991157;28;20030;-64
2022/06/22 05:47:37;;;;;;;4.03;3.20;;;;;;;;;;4988674;28;20146;-65
2022/06/22 05:50:06;;;;;;;4.57;3.97;;;;;;;;;;4989233;28;20030;-65
2022/06/22 05:52:34;;;;;;;3.42;3.22;;;;;;;;;;4991794;28;20022;-64
2022/06/22 05:55:02;;;;;;;3.42;3.22;;;;;;;;;;4987832;28;20828;-65
2022/06/22 05:57:36;;;;;;;2.63;2.45;;;;;;;;;;4985684;28;20030;-64
2022/06/22 06:00:20;;;;;;;3.45;3.15;;;;;;;;;;4992000;28;20042;-65
2022/06/22 06:03:01;;;;;;;3.00;2.65;;;;;;;;;;4993520;28;20428;-64
2022/06/22 06:05:34;;;;;;;3.45;3.20;;;;;;;;;;4986692;28;20045;-64
2022/06/22 06:08:01;;;;;;;4.18;3.40;;;;;;;;;;4987284;28;20165;-64
2022/06/22 06:10:32;;;;;;;3.63;3.35;;;;;;;;;;4990714;28;20042;-65
2022/06/22 06:12:57;;;;;;;3.28;3.05;;;;;;;;;;4987844;28;20030;-65
2022/06/22 06:15:23;;;;;;;3.65;3.35;;;;;;;;;;4986567;28;20422;-64
2022/06/22 06:17:50;;;;;;;3.22;2.97;;;;;;;;;;4986811;28;20052;-65
2022/06/22 06:20:19;;;;;;;3.50;3.20;;;;;;;;;;4987255;28;20038;-64
2022/06/22 06:22:44;;;;;;;3.72;3.38;;;;;;;;;;4991440;28;20049;-64
2022/06/22 06:28:02;;;;;;;3.13;2.78;;;;;;;;;;4987540;28;20028;-65
2022/06/22 06:30:34;;;;;;;6.00;3.33;;;;;;;;;;4987422;28;20042;-65
2022/06/22 06:32:59;;;;;;;3.50;2.78;;;;;;;;;;4986723;28;20354;-65
2022/06/22 06:35:30;;;;;;;3.85;2.97;;;;;;;;;;4987881;28;20030;-65
2022/06/22 06:38:09;;;;;;;3.10;2.85;;;;;;;;;;4990830;28;20037;-64
2022/06/22 06:40:37;;;;;;;3.28;2.40;;;;;;;;;;4988144;28;20546;-65
2022/06/22 06:43:03;;;;;;;3.10;2.80;;;;;;;;;;4985454;28;20030;-65
2022/06/22 06:45:28;;;;;;;7.60;4.00;;;;;;;;;;4985829;28;20026;-65
2022/06/22 06:47:57;;;;;;;3.22;2.63;;;;;;;;;;4987495;28;20034;-65
2022/06/22 06:50:27;;;;;;;4.13;2.70;;;;;;;;;;4988719;28;20041;-65
2022/06/22 06:53:00;;;;;;;3.38;2.65;;;;;;;;;;4989670;28;20268;-65
2022/06/22 06:55:42;;;;;;;4.20;2.80;;;;;;;;;;4989016;28;20093;-66
2022/06/22 06:58:07;;;;;;;4.65;2.78;;;;;;;;;;4989050;28;20040;-66
2022/06/22 07:00:32;;;;;;;3.92;2.60;;;;;;;;;;4986597;28;20030;-63
2022/06/22 07:02:58;;;;;;;7.10;3.25;;;;;;;;;;4983715;28;20038;-63
2022/06/22 07:05:25;;;;;;;7.82;3.10;;;;;;;;;;4989825;28;20038;-64
2022/06/22 07:07:56;;;;;;;9.77;2.90;;;;;;;;;;4990112;28;20145;-64
2022/06/22 07:10:21;;;;;;;9.07;2.63;;;;;;;;;;4988825;28;20045;-64
2022/06/22 07:12:50;;;;;;;3.95;2.55;;;;;;;;;;4985793;28;20036;-64
2022/06/22 07:15:18;;;;;;;8.93;2.63;;;;;;;;;;4987105;28;20652;-64
2022/06/22 07:17:45;;;;;;;3.25;2.28;;;;;;;;;;4989125;28;20018;-64
2022/06/22 07:20:13;;;;;;;3.75;2.60;;;;;;;;;;4986619;28;20449;-64
2022/06/22 07:22:40;;;;;;;8.63;3.08;;;;;;;;;;4989235;28;20040;-64
2022/06/22 07:25:05;;;;;;;3.78;2.70;;;;;;;;;;4988966;28;20448;-65
2022/06/22 07:27:34;;;;;;;4.53;2.17;;;;;;;;;;4989085;28;20088;-64
2022/06/22 07:30:02;;;;;;;2.10;1.90;;;;;;;;;;4985060;28;20129;-64
2022/06/22 07:32:46;;;;;;;2.50;2.30;;;;;;;;;;4984934;28;20380;-64
2022/06/22 07:35:28;;;;;;;4.60;2.95;;;;;;;;;;4991005;28;20065;-64
2022/06/22 07:37:59;;;;;;;2.63;2.22;;;;;;;;;;4990889;28;20515;-65
2022/06/22 07:40:27;;;;;;;2.67;2.25;;;;;;;;;;4985483;28;20641;-64
2022/06/22 07:42:54;;;;;;;7.35;4.55;;;;;;;;;;4986169;28;20022;-62
2022/06/22 07:45:22;;;;;;;6.75;3.80;;;;;;;;;;4989650;28;20042;-61
2022/06/22 07:47:57;;;;;;;12.15;6.72;;;;;;;;;;4986249;28;20512;-62
2022/06/22 07:50:36;;;;;;;9.15;7.38;;;;;;;;;;4984390;28;20148;-65
2022/06/22 07:53:01;;;;;;;3.13;2.83;;;;;;;;;;4991870;28;20025;-62
2022/06/22 07:55:47;;;;;;;3.00;2.30;;;;;;;;;;4987933;28;20488;-63
2022/06/22 07:58:18;;;;;;;3.42;2.60;;;;;;;;;;4983821;28;20534;-62
2022/06/22 08:00:45;;;;;;;2.42;2.22;;;;;;;;;;4987372;28;20120;-63
2022/06/22 08:03:23;;;;;;;3.20;2.50;;;;;;;;;;4989731;28;20503;-62
2022/06/22 08:05:50;;;;;;;2.35;2.15;;;;;;;;;;4986568;28;20470;-63
2022/06/22 08:08:31;;;;;;;3.60;2.40;;;;;;;;;;4962686;28;20058;-63
2022/06/22 08:10:56;;;;;;;2.47;2.28;;;;;;;;;;4972083;28;20129;-65
2022/06/22 08:13:23;;;;;;;1.98;1.88;;;;;;;;;;4971949;28;20109;-65
2022/06/22 08:15:52;;;;;;;2.13;2.03;;;;;;;;;;4966794;28;20031;-65
2022/06/22 08:18:18;;;;;;;5.97;2.33;;;;;;;;;;4968358;28;20026;-65
2022/06/22 08:20:45;;;;;;;2.90;2.17;;;;;;;;;;4972312;28;20035;-65
2022/06/22 08:23:15;;;;;;;2.53;2.33;;;;;;;;;;4975580;28;20038;-65
2022/06/22 08:25:44;;;;;;;2.80;1.95;;;;;;;;;;4970546;28;20042;-65
2022/06/22 08:28:10;;;;;;;3.63;2.25;;;;;;;;;;4968249;28;20062;-65
2022/06/22 08:30:35;;;;;;;3.05;2.75;;;;;;;;;;4969871;28;20448;-65
2022/06/22 08:33:05;;;;;;;2.15;2.00;;;;;;;;;;4972027;28;20433;-67
2022/06/22 08:35:34;;;;;;;3.45;2.25;;;;;;;;;;4971522;28;20070;-65
2022/06/22 08:38:25;;;;;;;2.70;2.50;;;;;;;;;;4970825;28;20030;-67
2022/06/22 08:40:58;;;;;;;2.75;2.42;;;;;;;;;;4971447;28;20030;-65
2022/06/22 08:43:37;;;;;;;2.78;2.58;;;;;;;;;;4971049;28;20376;-66
2022/06/22 08:46:11;;;;;;;3.10;2.50;;;;;;;;;;4970340;28;20031;-65
2022/06/22 08:48:39;;;;;;;4.30;2.75;;;;;;;;;;4974475;28;20372;-65
2022/06/22 08:51:10;;;;;;;3.10;2.80;;;;;;;;;;4972467;28;20042;-66
2022/06/22 08:53:54;;;;;;;2.42;2.22;;;;;;;;;;4969203;28;20085;-62
2022/06/22 08:56:38;;;;;;;3.20;2.65;;;;;;;;;;4968447;28;20115;-62
2022/06/22 08:59:22;;;;;;;2.80;2.60;;;;;;;;;;4969053;28;20652;-63
2022/06/22 09:01:50;;;;;;;3.58;2.60;;;;;;;;;;4968690;28;20031;-62
2022/06/22 09:04:15;;;;;;;4.82;2.65;;;;;;;;;;4971561;28;20035;-63
2022/06/22 09:06:44;;;;;;;3.17;2.60;;;;;;;;;;4971034;28;20044;-63
2022/06/22 09:09:35;;;;;;;5.03;3.03;;;;;;;;;;4965758;28;20647;-63
2022/06/22 09:12:19;;;;;;;3.05;2.85;;;;;;;;;;4967082;28;20037;-63
2022/06/22 09:14:50;;;;;;;3.22;3.03;;;;;;;;;;4966886;28;20434;-63
2022/06/22 09:17:19;;;;;;;6.43;3.30;;;;;;;;;;4964311;28;20031;-64
2022/06/22 09:19:54;;;;;;;3.63;2.85;;;;;;;;;;4963929;28;20037;-63
2022/06/22 09:22:37;;;;;;;3.00;2.75;;;;;;;;;;4968251;28;20493;-63
2022/06/22 09:25:15;;;;;;;4.07;3.42;;;;;;;;;;4967013;28;20031;-64
2022/06/22 09:28:00;;;;;;;6.28;2.58;;;;;;;;;;4963655;28;20050;-63
2022/06/22 09:30:44;;;;;;;3.45;2.80;;;;;;;;;;4962298;28;20045;-62
2022/06/22 09:33:18;;;;;;;2.97;2.70;;;;;;;;;;4966701;28;20563;-62
2022/06/22 09:35:52;;;;;;;2.97;2.63;;;;;;;;;;4964997;28;20357;-63
2022/06/22 09:38:36;;;;;;;3.08;2.88;;;;;;;;;;4963697;28;20039;-62
2022/06/22 09:41:04;;;;;;;3.22;2.70;;;;;;;;;;4965715;28;20074;-63
2022/06/22 09:43:49;;;;;;;3.13;2.92;;;;;;;;;;4966536;28;20400;-64
2022/06/22 09:46:23;;;;;;;2.90;2.70;;;;;;;;;;4964266;28;20023;-64
2022/06/22 09:48:58;;;;;;;4.07;2.92;;;;;;;;;;4964319;28;20077;-64
2022/06/22 09:51:26;;;;;;;6.07;3.10;;;;;;;;;;4967595;28;20412;-64
2022/06/22 09:56:19;;;;;;;4.50;3.00;;;;;;;;;;4967166;28;20066;-64
2022/06/22 09:57:18;;;;;;;5.80;3.40;;;;;;;;;;4961626;28;20031;-66
2022/06/22 09:59:43;;;;;;;7.00;3.20;;;;;;;;;;4888277;29;20041;-64
2022/06/22 10:02:08;;;;;;;4.43;3.03;;;;;;;;;;4888889;29;20072;-64
2022/06/22 10:04:52;;;;;;;3.42;3.13;;;;;;;;;;4887139;29;20045;-64
2022/06/22 10:07:17;;;;;;;3.22;3.03;;;;;;;;;;4889112;29;20523;-64
2022/06/22 10:09:45;;;;;;;4.75;2.85;;;;;;;;;;4894976;29;20059;-63
2022/06/22 10:12:29;;;;;;;2.75;2.40;;;;;;;;;;4893154;29;20024;-63
2022/06/22 10:14:54;;;;;;;3.42;3.13;;;;;;;;;;4889522;29;20037;-63
2022/06/22 10:17:19;;;;;;;3.95;3.30;;;;;;;;;;4895059;29;20032;-63
2022/06/22 10:20:03;;;;;;;5.95;3.05;;;;;;;;;;4895972;29;20037;-65
2022/06/22 10:22:48;;;;;;;3.50;3.15;;;;;;;;;;4896528;29;20428;-64
2022/06/22 10:25:14;;;;;;;3.33;3.13;;;;;;;;;;4880653;29;20028;-63
2022/06/22 10:27:47;;;;;;;5.68;3.20;;;;;;;;;;4889918;29;20072;-64
2022/06/22 10:30:15;;;;;;;4.10;3.80;;;;;;;;;;4892707;29;20040;-64
2022/06/22 10:32:53;;;;;;;3.85;2.92;;;;;;;;;;4889115;29;20274;-64
2022/06/22 10:35:22;;;;;;;3.42;3.13;;;;;;;;;;4890406;29;20036;-68
2022/06/22 10:37:53;;;;;;;3.63;3.03;;;;;;;;;;4967054;28;20043;-64
2022/06/22 10:46:25;;;;;;;9.88;3.95;;;;;;;;;;4967641;28;20396;-64
2022/06/22 10:49:01;;;;;;;5.78;3.67;;;;;;;;;;4967586;28;20542;-63
2022/06/22 10:51:45;;;;;;;3.70;3.45;;;;;;;;;;4966544;28;20575;-63
2022/06/22 10:54:29;;;;;;;3.65;3.28;;;;;;;;;;4967038;28;20023;-64
2022/06/22 10:57:07;;;;;;;3.72;3.42;;;;;;;;;;4964957;28;20798;-64
2022/06/22 10:59:38;;;;;;;3.92;3.72;;;;;;;;;;4965650;28;20019;-61
2022/06/22 11:02:15;;;;;;;4.38;4.05;;;;;;;;;;4968733;28;20432;-61
2022/06/22 11:04:47;;;;;;;4.22;3.83;;;;;;;;;;4966345;28;20101;-62
2022/06/22 11:07:27;;;;;;;4.72;3.85;;;;;;;;;;4967550;28;20053;-61
2022/06/22 11:10:01;;;;;;;4.60;3.80;;;;;;;;;;4986369;28;20464;-62
2022/06/22 11:12:34;;;;;;;52.05;31.80;;;;;;;;;;4986706;28;20113;-61
2022/06/22 11:15:18;;;;;;;4.35;4.05;;;;;;;;;;4985034;28;20053;-62
2022/06/22 11:18:09;;;;;;;3.35;2.97;;;;;;;;;;4986239;28;20022;-61
2022/06/22 11:20:40;;;;;;;3.88;3.53;;;;;;;;;;4972503;28;20120;-61
2022/06/22 11:23:10;;;;;;;4.10;3.45;;;;;;;;;;4987311;28;20065;-61
2022/06/22 11:31:41;;;;;;;4.57;4.28;;;;;;;;;;4987530;28;20056;-62
2022/06/22 11:34:06;;;;;;;3.75;3.47;;;;;;;;;;4986777;28;20034;-62
2022/06/22 11:36:50;;;;;;;3.50;3.20;;;;;;;;;;4986223;28;20032;-62
2022/06/22 11:39:30;;;;;;;4.20;3.90;;;;;;;;;;4988563;28;20033;-63
2022/06/22 11:41:58;;;;;;;3.78;3.50;;;;;;;;;;4989242;28;20033;-62
2022/06/22 11:44:42;;;;;;;4.43;4.03;;;;;;;;;;4986072;28;20452;-63
2022/06/22 11:47:33;;;;;;;3.80;3.60;;;;;;;;;;4984612;28;20695;-62
2022/06/22 11:50:28;;;;;;;4.65;4.35;;;;;;;;;;4966942;28;20044;-62
2022/06/22 11:52:53;;;;;;;7.20;4.53;;;;;;;;;;4970474;28;20039;-62
2022/06/22 11:55:32;;;;;;;3.92;3.58;;;;;;;;;;4989892;28;20031;-62
2022/06/22 11:58:15;;;;;;;3.83;3.60;;;;;;;;;;4992835;28;20300;-61
2022/06/22 12:00:59;;;;;;;3.92;3.72;;;;;;;;;;4991631;28;20065;-62
2022/06/22 12:03:37;;;;;;;4.32;3.80;;;;;;;;;;4988628;28;20539;-63
2022/06/22 12:06:02;;;;;;;5.45;3.70;;;;;;;;;;4993200;28;20388;-62
2022/06/22 12:08:49;;;;;;;3.78;3.58;;;;;;;;;;4993545;28;20057;-62
2022/06/22 12:11:18;;;;;;;3.67;3.42;;;;;;;;;;4991073;28;20045;-61
2022/06/22 12:16:40;;;;;;;4.80;4.35;;;;;;;;;;4992914;28;20633;-62
2022/06/22 12:19:11;;;;;;;3.90;3.70;;;;;;;;;;4993209;28;20029;-63
2022/06/22 12:22:00;;;;;;;4.30;4.00;;;;;;;;;;4992845;28;20033;-62
2022/06/22 12:24:43;;;;;;;4.38;4.00;;;;;;;;;;4990811;28;20129;-62
2022/06/22 12:27:12;;;;;;;4.17;3.87;;;;;;;;;;4990454;28;20026;-62
2022/06/22 12:29:45;;;;;;;4.28;3.97;;;;;;;;;;4992466;28;20124;-62
2022/06/22 12:32:23;;;;;;;7.43;4.50;;;;;;;;;;4992498;28;20030;-63
2022/06/22 12:34:52;;;;;;;4.32;4.05;;;;;;;;;;4991337;28;20018;-63
2022/06/22 12:37:22;;;;;;;4.30;3.90;;;;;;;;;;4995629;28;20157;-63
2022/06/22 12:40:10;;;;;;;4.07;3.85;;;;;;;;;;4975651;28;20030;-62
2022/06/22 12:43:00;;;;;;;4.63;4.32;;;;;;;;;;4990126;28;20026;-63
2022/06/22 12:45:26;;;;;;;4.32;4.13;;;;;;;;;;4994093;28;20373;-63
2022/06/22 12:47:51;;;;;;;4.95;4.70;;;;;;;;;;4996166;28;20026;-63
2022/06/22 12:50:28;;;;;;;5.97;5.20;;;;;;;;;;4993333;28;20034;-63
2022/06/22 12:53:00;;;;;;;4.07;3.78;;;;;;;;;;4993877;28;20037;-63
2022/06/22 12:55:29;;;;;;;4.97;4.53;;;;;;;;;;4995807;28;20366;-63
2022/06/22 12:58:03;;;;;;;4.72;4.43;;;;;;;;;;4991009;28;20926;-63
2022/06/22 13:00:28;;;;;;;;;;;;;;;;;;4992162;28;20075;-63
2022/06/22 13:02:58;;;;;;;4.65;4.45;;;;;;;;;;4993347;28;19914;-61
2022/06/22 13:05:34;;;;;;;5.18;4.20;;;;;;;;;;4989077;28;20028;-62
2022/06/22 13:08:02;;;;;;;4.95;4.72;;;;;;;;;;4987230;28;20046;-63
2022/06/22 13:10:29;;;;;;;4.97;4.00;;;;;;;;;;4987197;28;20030;-63
2022/06/22 13:12:57;;;;;;;6.32;4.22;;;;;;;;;;4991177;28;20486;-63
2022/06/22 13:15:41;;;;;;;4.63;4.32;;;;;;;;;;4972658;28;20220;-63
2022/06/22 13:18:13;;;;;;;5.07;4.78;;;;;;;;;;4966933;28;21103;-63
2022/06/22 13:20:39;;;;;;;5.53;4.50;;;;;;;;;;4991089;28;20230;-63
2022/06/22 13:23:31;;;;;;;4.78;4.47;;;;;;;;;;4990901;28;20349;-62
2022/06/22 13:26:09;;;;;;;4.47;4.05;;;;;;;;;;4911241;29;20429;-63
2022/06/22 13:28:51;;;;;;;5.38;4.43;;;;;;;;;;4907798;29;20741;-63
2022/06/22 13:31:21;;;;;;;5.30;4.90;;;;;;;;;;4913909;29;20048;-62
2022/06/22 13:33:55;;;;;;;5.03;4.60;;;;;;;;;;4913272;29;20072;-62
2022/06/22 13:36:43;;;;;;;4.65;4.35;;;;;;;;;;4908230;29;20569;-62
2022/06/22 13:39:38;;;;;;;4.50;4.22;;;;;;;;;;4907254;29;20091;-61
2022/06/22 13:42:18;;;;;;;4.03;3.83;;;;;;;;;;4889269;29;20412;-62
2022/06/22 13:44:50;;;;;;;5.10;4.63;;;;;;;;;;4886683;29;20037;-60
2022/06/22 13:47:35;;;;;;;6.63;5.22;;;;;;;;;;4883559;29;20611;-60
2022/06/22 13:53:28;;;;;;;4.70;4.45;;;;;;;;;;4833527;29;20596;-62
2022/06/22 13:55:55;;;;;;;6.95;5.20;;;;;;;;;;4819048;29;20385;-62
2022/06/22 13:58:25;;;;;;;9.43;5.07;;;;;;;;;;4829589;29;20094;-60
2022/06/22 14:00:53;;;;;;;5.25;4.18;;;;;;;;;;4831167;29;20496;-62
2022/06/22 14:03:27;;;;;;;8.88;4.70;;;;;;;;;;4857433;29;20037;-62
2022/06/22 14:05:55;;;;;;;4.82;4.53;;;;;;;;;;4866286;29;20161;-62
2022/06/22 14:08:23;;;;;;;5.55;4.72;;;;;;;;;;4869532;29;20065;-61
2022/06/22 14:10:56;;;;;;;5.15;4.70;;;;;;;;;;4868015;29;20045;-62
2022/06/22 14:13:28;;;;;;;4.72;4.43;;;;;;;;;;4865893;29;20149;-62
2022/06/22 14:16:12;;;;;;;9.68;5.07;;;;;;;;;;4863821;29;20617;-60
2022/06/22 14:18:50;;;;;;;8.00;5.00;;;;;;;;;;4885938;29;20051;-63
2022/06/22 14:21:21;;;;;;;4.75;4.43;;;;;;;;;;4909930;29;20044;-67
2022/06/22 14:23:46;;;;;;;5.43;4.93;;;;;;;;;;4908289;29;20047;-65
2022/06/22 14:26:31;;;;;;;6.63;5.97;;;;;;;;;;4897937;28;20032;-65
2022/06/22 14:29:02;;;;;;;6.28;5.60;;;;;;;;;;4989893;28;20026;-64
2022/06/22 14:31:35;;;;;;;6.32;5.82;;;;;;;;;;4991116;28;20041;-64
2022/06/22 14:34:07;;;;;;;5.57;5.00;;;;;;;;;;4987811;28;20023;-65
2022/06/22 14:36:36;;;;;;;6.50;5.65;;;;;;;;;;4983499;28;20038;-64
2022/06/22 14:39:14;;;;;;;5.85;5.28;;;;;;;;;;4986701;28;20120;-65
2022/06/22 14:41:41;;;;;;;7.57;5.43;;;;;;;;;;4987062;28;20664;-64
2022/06/22 14:44:26;;;;;;;8.60;5.45;;;;;;;;;;4986920;28;20026;-65
2022/06/22 14:47:06;;;;;;;5.65;5.15;;;;;;;;;;4984963;28;20782;-65
2022/06/22 14:49:38;;;;;;;5.53;4.95;;;;;;;;;;4985618;28;20029;-64
2022/06/22 14:52:08;;;;;;;5.97;5.38;;;;;;;;;;4983611;28;20494;-65
2022/06/22 14:54:52;;;;;;;6.22;5.38;;;;;;;;;;4986084;28;20547;-65
2022/06/22 14:57:38;;;;;;;8.18;5.90;;;;;;;;;;4985994;28;20034;-65
2022/06/22 15:00:25;;;;;;;6.15;5.50;;;;;;;;;;4984672;28;20073;-65
2022/06/22 15:02:54;;;;;;;7.22;5.38;;;;;;;;;;4985769;28;20038;-64
2022/06/22 15:05:22;;;;;;;8.55;5.50;;;;;;;;;;4983536;28;20054;-65
2022/06/22 15:07:52;;;;;;;7.80;5.55;;;;;;;;;;4985223;28;20689;-65
2022/06/22 15:10:25;;;;;;;5.97;4.90;;;;;;;;;;4984800;28;20041;-64
2022/06/22 15:12:56;;;;;;;6.75;6.15;;;;;;;;;;4986464;28;20986;-64
2022/06/22 15:15:42;;;;;;;8.70;6.63;;;;;;;;;;4987549;28;20021;-64
2022/06/22 15:18:21;;;;;;;5.85;4.90;;;;;;;;;;4984820;28;20026;-62
2022/06/22 15:20:49;;;;;;;6.43;5.65;;;;;;;;;;4986588;28;20507;-64
2022/06/22 15:23:19;;;;;;;8.93;5.65;;;;;;;;;;4970777;28;20126;-64
2022/06/22 15:26:00;;;;;;;10.13;6.97;;;;;;;;;;4990440;28;20026;-66
2022/06/22 15:28:44;;;;;;;8.45;4.88;;;;;;;;;;4989166;28;20033;-67
2022/06/22 15:31:23;;;;;;;5.83;5.43;;;;;;;;;;4987023;28;20035;-66
2022/06/22 15:34:04;;;;;;;6.50;5.97;;;;;;;;;;4987709;28;20026;-67
2022/06/22 15:36:32;;;;;;;8.85;6.30;;;;;;;;;;4969952;28;20033;-66
2022/06/22 15:39:02;;;;;;;6.80;6.13;;;;;;;;;;4986483;28;20120;-66
2022/06/22 15:41:54;;;;;;;6.82;6.43;;;;;;;;;;4984502;28;20027;-67
2022/06/22 15:44:25;;;;;;;15.25;5.70;;;;;;;;;;4986972;28;20057;-67